sensor_id;sensor_type;location;lat;lon;timestamp;temperature;humidity
12704;DHT22;6416;52.182;7.650;2023-03-01T00:01:05;2.90;38.50
12704;DHT22;6416;52.182;7.650;2023-03-01T00:03:31;2.90;38.80
12704;DHT22;6416;52.182;7.650;2023-03-01T00:05:57;2.90;38.40
12704;DHT22;6416;52.182;7.650;2023-03-01T00:08:22;2.80;38.50
12704;DHT22;6416;52.182;7.650;2023-03-01T00:10:48;2.80;38.50
12704;DHT22;6416;52.182;7.650;2023-03-01T00:13:13;2.80;38.50
12704;DHT22;6416;52.182;7.650;2023-03-01T00:15:40;2.80;38.60
12704;DHT22;6416;52.182;7.650;2023-03-01T00:18:05;2.70;38.70
12704;DHT22;6416;52.182;7.650;2023-03-01T00:20:31;2.70;38.80
12704;DHT22;6416;52.182;7.650;2023-03-01T00:22:56;2.70;38.90
12704;DHT22;6416;52.182;7.650;2023-03-01T00:25:22;2.70;38.90
12704;DHT22;6416;52.182;7.650;2023-03-01T00:27:47;2.60;39.00
12704;DHT22;6416;52.182;7.650;2023-03-01T00:30:13;2.60;39.00
12704;DHT22;6416;52.182;7.650;2023-03-01T00:32:38;2.60;39.00
12704;DHT22;6416;52.182;7.650;2023-03-01T00:35:04;2.60;39.00
12704;DHT22;6416;52.182;7.650;2023-03-01T00:37:29;2.50;39.00
12704;DHT22;6416;52.182;7.650;2023-03-01T00:39:55;2.50;39.10
12704;DHT22;6416;52.182;7.650;2023-03-01T00:42:20;2.50;39.10
12704;DHT22;6416;52.182;7.650;2023-03-01T00:44:45;2.50;39.20
12704;DHT22;6416;52.182;7.650;2023-03-01T00:47:11;2.40;39.00
12704;DHT22;6416;52.182;7.650;2023-03-01T00:49:36;2.40;39.10
12704;DHT22;6416;52.182;7.650;2023-03-01T00:52:03;2.40;39.20
12704;DHT22;6416;52.182;7.650;2023-03-01T00:54:29;2.30;39.10
12704;DHT22;6416;52.182;7.650;2023-03-01T00:56:54;2.30;39.30
12704;DHT22;6416;52.182;7.650;2023-03-01T00:59:19;2.30;39.40
12704;DHT22;6416;52.182;7.650;2023-03-01T01:01:45;2.30;39.40
12704;DHT22;6416;52.182;7.650;2023-03-01T01:04:13;2.20;39.40
12704;DHT22;6416;52.182;7.650;2023-03-01T01:06:43;2.20;39.60
12704;DHT22;6416;52.182;7.650;2023-03-01T01:09:12;2.20;40.00
12704;DHT22;6416;52.182;7.650;2023-03-01T01:11:38;2.20;40.40
12704;DHT22;6416;52.182;7.650;2023-03-01T01:14:04;2.10;39.60
12704;DHT22;6416;52.182;7.650;2023-03-01T01:16:29;2.10;39.60
12704;DHT22;6416;52.182;7.650;2023-03-01T01:18:56;2.10;39.70
12704;DHT22;6416;52.182;7.650;2023-03-01T01:21:23;2.00;39.70
12704;DHT22;6416;52.182;7.650;2023-03-01T01:23:50;2.00;39.80
12704;DHT22;6416;52.182;7.650;2023-03-01T01:26:27;2.00;39.90
12704;DHT22;6416;52.182;7.650;2023-03-01T01:28:54;2.00;40.60
12704;DHT22;6416;52.182;7.650;2023-03-01T01:31:21;1.90;39.90
12704;DHT22;6416;52.182;7.650;2023-03-01T01:33:46;1.90;40.10
12704;DHT22;6416;52.182;7.650;2023-03-01T01:36:12;1.90;40.10
12704;DHT22;6416;52.182;7.650;2023-03-01T01:38:38;1.90;40.20
12704;DHT22;6416;52.182;7.650;2023-03-01T01:41:05;1.80;40.10
12704;DHT22;6416;52.182;7.650;2023-03-01T01:43:35;1.80;40.10
12704;DHT22;6416;52.182;7.650;2023-03-01T01:46:10;1.80;40.20
12704;DHT22;6416;52.182;7.650;2023-03-01T01:48:54;1.80;40.40
12704;DHT22;6416;52.182;7.650;2023-03-01T01:51:25;1.70;40.70
12704;DHT22;6416;52.182;7.650;2023-03-01T01:53:56;1.70;40.20
12704;DHT22;6416;52.182;7.650;2023-03-01T01:56:24;1.70;40.30
12704;DHT22;6416;52.182;7.650;2023-03-01T01:58:51;1.60;40.00
12704;DHT22;6416;52.182;7.650;2023-03-01T02:01:17;1.60;40.10
12704;DHT22;6416;52.182;7.650;2023-03-01T02:03:44;1.60;40.10
12704;DHT22;6416;52.182;7.650;2023-03-01T02:06:34;1.60;40.30
12704;DHT22;6416;52.182;7.650;2023-03-01T02:09:08;1.60;40.80
12704;DHT22;6416;52.182;7.650;2023-03-01T02:11:36;1.60;40.60
12704;DHT22;6416;52.182;7.650;2023-03-01T02:14:01;1.50;40.10
12704;DHT22;6416;52.182;7.650;2023-03-01T02:16:27;1.50;40.20
12704;DHT22;6416;52.182;7.650;2023-03-01T02:18:52;1.50;40.30
12704;DHT22;6416;52.182;7.650;2023-03-01T02:21:38;1.40;40.30
12704;DHT22;6416;52.182;7.650;2023-03-01T02:26:52;1.40;40.90
12704;DHT22;6416;52.182;7.650;2023-03-01T02:29:19;1.40;40.50
12704;DHT22;6416;52.182;7.650;2023-03-01T02:31:45;1.30;40.50
12704;DHT22;6416;52.182;7.650;2023-03-01T02:34:13;1.30;40.60
12704;DHT22;6416;52.182;7.650;2023-03-01T02:37:04;1.30;40.80
12704;DHT22;6416;52.182;7.650;2023-03-01T02:39:44;1.30;40.90
12704;DHT22;6416;52.182;7.650;2023-03-01T02:42:14;1.20;41.30
12704;DHT22;6416;52.182;7.650;2023-03-01T02:44:41;1.20;40.70
12704;DHT22;6416;52.182;7.650;2023-03-01T02:47:06;1.20;40.70
12704;DHT22;6416;52.182;7.650;2023-03-01T02:49:35;1.20;40.90
12704;DHT22;6416;52.182;7.650;2023-03-01T02:57:13;1.10;41.20
12704;DHT22;6416;52.182;7.650;2023-03-01T02:59:39;1.00;41.00
12704;DHT22;6416;52.182;7.650;2023-03-01T03:02:20;1.00;41.10
12704;DHT22;6416;52.182;7.650;2023-03-01T03:04:46;1.00;42.00
12704;DHT22;6416;52.182;7.650;2023-03-01T03:07:12;1.00;41.20
12704;DHT22;6416;52.182;7.650;2023-03-01T03:09:37;1.00;41.20
12704;DHT22;6416;52.182;7.650;2023-03-01T03:12:03;0.90;41.30
12704;DHT22;6416;52.182;7.650;2023-03-01T03:14:28;0.90;41.40
12704;DHT22;6416;52.182;7.650;2023-03-01T03:16:54;0.90;41.40
12704;DHT22;6416;52.182;7.650;2023-03-01T03:19:19;0.90;41.40
12704;DHT22;6416;52.182;7.650;2023-03-01T03:21:45;0.90;41.50
12704;DHT22;6416;52.182;7.650;2023-03-01T03:24:10;0.80;41.40
12704;DHT22;6416;52.182;7.650;2023-03-01T03:26:36;0.90;41.50
12704;DHT22;6416;52.182;7.650;2023-03-01T03:29:02;0.80;41.40
12704;DHT22;6416;52.182;7.650;2023-03-01T03:31:27;0.80;41.50
12704;DHT22;6416;52.182;7.650;2023-03-01T03:33:53;0.80;41.50
12704;DHT22;6416;52.182;7.650;2023-03-01T03:36:22;0.80;41.50
12704;DHT22;6416;52.182;7.650;2023-03-01T03:38:48;0.70;41.60
12704;DHT22;6416;52.182;7.650;2023-03-01T03:41:13;0.70;41.40
12704;DHT22;6416;52.182;7.650;2023-03-01T03:43:40;0.70;41.50
12704;DHT22;6416;52.182;7.650;2023-03-01T03:46:07;0.70;41.50
12704;DHT22;6416;52.182;7.650;2023-03-01T03:48:41;0.70;41.60
12704;DHT22;6416;52.182;7.650;2023-03-01T03:51:10;0.60;41.80
12704;DHT22;6416;52.182;7.650;2023-03-01T03:53:36;0.60;41.70
12704;DHT22;6416;52.182;7.650;2023-03-01T03:56:01;0.60;41.60
12704;DHT22;6416;52.182;7.650;2023-03-01T03:58:27;0.60;41.70
12704;DHT22;6416;52.182;7.650;2023-03-01T04:00:54;0.60;41.80
12704;DHT22;6416;52.182;7.650;2023-03-01T04:03:20;0.60;42.10
12704;DHT22;6416;52.182;7.650;2023-03-01T04:05:46;0.50;41.90
12704;DHT22;6416;52.182;7.650;2023-03-01T04:08:13;0.50;42.00
12704;DHT22;6416;52.182;7.650;2023-03-01T04:10:40;0.50;42.10
12704;DHT22;6416;52.182;7.650;2023-03-01T04:13:09;0.50;42.20
12704;DHT22;6416;52.182;7.650;2023-03-01T04:15:35;0.50;42.30
12704;DHT22;6416;52.182;7.650;2023-03-01T04:18:01;0.50;42.30
12704;DHT22;6416;52.182;7.650;2023-03-01T04:20:29;0.50;42.40
12704;DHT22;6416;52.182;7.650;2023-03-01T04:25:25;0.50;42.70
12704;DHT22;6416;52.182;7.650;2023-03-01T04:27:51;0.40;42.30
12704;DHT22;6416;52.182;7.650;2023-03-01T04:30:17;0.40;42.30
12704;DHT22;6416;52.182;7.650;2023-03-01T04:32:42;0.40;42.30
12704;DHT22;6416;52.182;7.650;2023-03-01T04:35:08;0.40;42.40
12704;DHT22;6416;52.182;7.650;2023-03-01T04:37:34;0.40;42.40
12704;DHT22;6416;52.182;7.650;2023-03-01T04:39:59;0.40;42.40
12704;DHT22;6416;52.182;7.650;2023-03-01T04:42:25;0.40;42.50
12704;DHT22;6416;52.182;7.650;2023-03-01T04:44:50;0.30;42.50
12704;DHT22;6416;52.182;7.650;2023-03-01T04:47:15;0.30;42.50
12704;DHT22;6416;52.182;7.650;2023-03-01T04:49:41;0.30;42.60
12704;DHT22;6416;52.182;7.650;2023-03-01T04:52:06;0.30;42.70
12704;DHT22;6416;52.182;7.650;2023-03-01T04:54:33;0.30;42.70
12704;DHT22;6416;52.182;7.650;2023-03-01T04:56:59;0.30;42.70
12704;DHT22;6416;52.182;7.650;2023-03-01T04:59:25;0.30;42.70
12704;DHT22;6416;52.182;7.650;2023-03-01T05:01:51;0.30;42.70
12704;DHT22;6416;52.182;7.650;2023-03-01T05:04:17;0.30;42.80
12704;DHT22;6416;52.182;7.650;2023-03-01T05:06:43;0.30;42.90
12704;DHT22;6416;52.182;7.650;2023-03-01T05:09:09;0.20;42.90
12704;DHT22;6416;52.182;7.650;2023-03-01T05:11:34;0.30;43.00
12704;DHT22;6416;52.182;7.650;2023-03-01T05:14:00;0.20;42.90
12704;DHT22;6416;52.182;7.650;2023-03-01T05:16:25;0.20;42.90
12704;DHT22;6416;52.182;7.650;2023-03-01T05:18:51;0.20;42.90
12704;DHT22;6416;52.182;7.650;2023-03-01T05:21:17;0.20;42.90
12704;DHT22;6416;52.182;7.650;2023-03-01T05:23:42;0.20;42.90
12704;DHT22;6416;52.182;7.650;2023-03-01T05:26:08;0.20;42.90
12704;DHT22;6416;52.182;7.650;2023-03-01T05:28:34;0.10;43.00
12704;DHT22;6416;52.182;7.650;2023-03-01T05:31:00;0.10;43.10
12704;DHT22;6416;52.182;7.650;2023-03-01T05:33:26;0.10;43.10
12704;DHT22;6416;52.182;7.650;2023-03-01T05:35:52;0.10;43.30
12704;DHT22;6416;52.182;7.650;2023-03-01T05:38:18;0.10;43.20
12704;DHT22;6416;52.182;7.650;2023-03-01T05:40:46;0.10;43.30
12704;DHT22;6416;52.182;7.650;2023-03-01T05:43:13;0.10;43.40
12704;DHT22;6416;52.182;7.650;2023-03-01T05:45:40;0.00;43.40
12704;DHT22;6416;52.182;7.650;2023-03-01T05:48:06;0.00;43.40
12704;DHT22;6416;52.182;7.650;2023-03-01T05:50:35;0.00;43.40
12704;DHT22;6416;52.182;7.650;2023-03-01T05:55:29;0.00;43.60
12704;DHT22;6416;52.182;7.650;2023-03-01T05:57:57;0.00;43.60
12704;DHT22;6416;52.182;7.650;2023-03-01T06:00:22;0.00;43.60
12704;DHT22;6416;52.182;7.650;2023-03-01T06:02:48;0.00;43.60
12704;DHT22;6416;52.182;7.650;2023-03-01T06:05:14;0.00;43.60
12704;DHT22;6416;52.182;7.650;2023-03-01T06:07:40;-0.10;43.60
12704;DHT22;6416;52.182;7.650;2023-03-01T06:10:06;-0.10;43.60
12704;DHT22;6416;52.182;7.650;2023-03-01T06:12:36;-0.10;43.60
12704;DHT22;6416;52.182;7.650;2023-03-01T06:15:03;-0.10;43.80
12704;DHT22;6416;52.182;7.650;2023-03-01T06:17:31;-0.10;43.60
12704;DHT22;6416;52.182;7.650;2023-03-01T06:19:56;-0.10;43.80
12704;DHT22;6416;52.182;7.650;2023-03-01T06:22:22;-0.10;43.70
12704;DHT22;6416;52.182;7.650;2023-03-01T06:24:47;-0.10;43.80
12704;DHT22;6416;52.182;7.650;2023-03-01T06:27:13;-0.20;43.70
12704;DHT22;6416;52.182;7.650;2023-03-01T06:29:39;-0.20;43.80
12704;DHT22;6416;52.182;7.650;2023-03-01T06:32:04;-0.20;43.80
12704;DHT22;6416;52.182;7.650;2023-03-01T06:34:30;-0.20;43.80
12704;DHT22;6416;52.182;7.650;2023-03-01T06:36:55;-0.10;44.10
12704;DHT22;6416;52.182;7.650;2023-03-01T06:39:21;-0.10;44.30
12704;DHT22;6416;52.182;7.650;2023-03-01T06:41:46;0.00;44.60
12704;DHT22;6416;52.182;7.650;2023-03-01T06:44:12;0.10;44.80
12704;DHT22;6416;52.182;7.650;2023-03-01T06:46:39;0.20;45.70
12704;DHT22;6416;52.182;7.650;2023-03-01T06:49:04;0.30;45.30
12704;DHT22;6416;52.182;7.650;2023-03-01T06:51:30;0.50;45.50
12704;DHT22;6416;52.182;7.650;2023-03-01T06:53:55;0.60;45.60
12704;DHT22;6416;52.182;7.650;2023-03-01T06:56:21;0.80;45.70
12704;DHT22;6416;52.182;7.650;2023-03-01T06:58:46;1.00;45.60
12704;DHT22;6416;52.182;7.650;2023-03-01T07:01:12;1.10;45.30
12704;DHT22;6416;52.182;7.650;2023-03-01T07:03:37;1.20;45.10
12704;DHT22;6416;52.182;7.650;2023-03-01T07:06:03;1.30;44.90
12704;DHT22;6416;52.182;7.650;2023-03-01T07:08:28;1.40;44.70
12704;DHT22;6416;52.182;7.650;2023-03-01T07:10:57;1.40;44.50
12704;DHT22;6416;52.182;7.650;2023-03-01T07:13:23;1.50;44.80
12704;DHT22;6416;52.182;7.650;2023-03-01T07:15:48;1.50;44.50
12704;DHT22;6416;52.182;7.650;2023-03-01T07:18:14;1.60;44.90
12704;DHT22;6416;52.182;7.650;2023-03-01T07:20:39;1.70;45.20
12704;DHT22;6416;52.182;7.650;2023-03-01T07:23:06;1.80;45.40
12704;DHT22;6416;52.182;7.650;2023-03-01T07:25:31;2.00;45.70
12704;DHT22;6416;52.182;7.650;2023-03-01T07:27:57;2.20;45.80
12704;DHT22;6416;52.182;7.650;2023-03-01T07:30:23;2.40;46.00
12704;DHT22;6416;52.182;7.650;2023-03-01T07:32:49;2.60;46.30
12704;DHT22;6416;52.182;7.650;2023-03-01T07:35:14;2.80;46.80
12704;DHT22;6416;52.182;7.650;2023-03-01T07:37:40;3.20;47.70
12704;DHT22;6416;52.182;7.650;2023-03-01T07:40:06;3.70;48.60
12704;DHT22;6416;52.182;7.650;2023-03-01T07:42:32;4.30;49.40
12704;DHT22;6416;52.182;7.650;2023-03-01T07:44:57;4.90;49.80
12704;DHT22;6416;52.182;7.650;2023-03-01T07:47:23;5.50;49.90
12704;DHT22;6416;52.182;7.650;2023-03-01T07:49:48;6.20;50.00
12704;DHT22;6416;52.182;7.650;2023-03-01T07:52:14;6.90;50.00
12704;DHT22;6416;52.182;7.650;2023-03-01T07:54:42;7.60;49.70
12704;DHT22;6416;52.182;7.650;2023-03-01T07:57:08;8.30;49.40
12704;DHT22;6416;52.182;7.650;2023-03-01T07:59:33;9.00;49.00
12704;DHT22;6416;52.182;7.650;2023-03-01T08:01:59;9.70;48.40
12704;DHT22;6416;52.182;7.650;2023-03-01T08:04:24;10.30;47.00
12704;DHT22;6416;52.182;7.650;2023-03-01T08:06:51;11.10;44.10
12704;DHT22;6416;52.182;7.650;2023-03-01T08:09:16;11.60;44.80
12704;DHT22;6416;52.182;7.650;2023-03-01T08:11:42;12.10;45.00
12704;DHT22;6416;52.182;7.650;2023-03-01T08:14:07;12.60;44.70
12704;DHT22;6416;52.182;7.650;2023-03-01T08:16:33;13.10;44.20
12704;DHT22;6416;52.182;7.650;2023-03-01T08:19:04;13.60;43.90
12704;DHT22;6416;52.182;7.650;2023-03-01T08:21:29;14.10;43.10
12704;DHT22;6416;52.182;7.650;2023-03-01T08:23:55;14.50;43.00
12704;DHT22;6416;52.182;7.650;2023-03-01T08:26:21;14.90;42.40
12704;DHT22;6416;52.182;7.650;2023-03-01T08:28:48;15.30;42.00
12704;DHT22;6416;52.182;7.650;2023-03-01T08:31:34;15.70;41.10
12704;DHT22;6416;52.182;7.650;2023-03-01T08:34:01;16.00;40.10
12704;DHT22;6416;52.182;7.650;2023-03-01T08:36:29;16.30;39.50
12704;DHT22;6416;52.182;7.650;2023-03-01T08:38:55;16.50;38.80
12704;DHT22;6416;52.182;7.650;2023-03-01T08:41:21;16.70;38.90
12704;DHT22;6416;52.182;7.650;2023-03-01T08:43:47;16.90;38.40
12704;DHT22;6416;52.182;7.650;2023-03-01T08:46:13;17.10;38.20
12704;DHT22;6416;52.182;7.650;2023-03-01T08:48:39;17.30;38.30
12704;DHT22;6416;52.182;7.650;2023-03-01T08:51:14;17.60;37.80
12704;DHT22;6416;52.182;7.650;2023-03-01T08:53:40;17.80;36.80
12704;DHT22;6416;52.182;7.650;2023-03-01T08:56:07;18.10;36.80
12704;DHT22;6416;52.182;7.650;2023-03-01T08:58:33;18.30;36.90
12704;DHT22;6416;52.182;7.650;2023-03-01T09:00:58;18.50;36.40
12704;DHT22;6416;52.182;7.650;2023-03-01T09:03:25;18.70;36.00
12704;DHT22;6416;52.182;7.650;2023-03-01T09:05:51;19.00;35.90
12704;DHT22;6416;52.182;7.650;2023-03-01T09:08:17;19.20;35.40
12704;DHT22;6416;52.182;7.650;2023-03-01T09:10:43;19.40;34.60
12704;DHT22;6416;52.182;7.650;2023-03-01T09:13:09;19.50;34.50
12704;DHT22;6416;52.182;7.650;2023-03-01T09:15:36;19.70;34.60
12704;DHT22;6416;52.182;7.650;2023-03-01T09:18:02;19.90;33.90
12704;DHT22;6416;52.182;7.650;2023-03-01T09:20:27;20.10;34.20
12704;DHT22;6416;52.182;7.650;2023-03-01T09:22:53;20.30;33.70
12704;DHT22;6416;52.182;7.650;2023-03-01T09:25:18;20.50;33.80
12704;DHT22;6416;52.182;7.650;2023-03-01T09:27:44;20.70;33.10
12704;DHT22;6416;52.182;7.650;2023-03-01T09:30:10;20.90;33.10
12704;DHT22;6416;52.182;7.650;2023-03-01T09:32:36;21.10;31.80
12704;DHT22;6416;52.182;7.650;2023-03-01T09:35:02;21.30;31.70
12704;DHT22;6416;52.182;7.650;2023-03-01T09:37:27;21.40;31.20
12704;DHT22;6416;52.182;7.650;2023-03-01T09:39:53;21.50;30.70
12704;DHT22;6416;52.182;7.650;2023-03-01T09:42:18;21.50;30.60
12704;DHT22;6416;52.182;7.650;2023-03-01T09:44:51;21.60;30.00
12704;DHT22;6416;52.182;7.650;2023-03-01T09:47:22;21.60;29.80
12704;DHT22;6416;52.182;7.650;2023-03-01T09:52:48;21.70;29.30
12704;DHT22;6416;52.182;7.650;2023-03-01T09:55:27;21.90;29.40
12704;DHT22;6416;52.182;7.650;2023-03-01T10:00:49;22.20;29.10
12704;DHT22;6416;52.182;7.650;2023-03-01T10:05:47;22.50;29.20
12704;DHT22;6416;52.182;7.650;2023-03-01T10:10:55;22.70;28.60
12704;DHT22;6416;52.182;7.650;2023-03-01T10:13:48;22.90;29.00
12704;DHT22;6416;52.182;7.650;2023-03-01T10:16:21;23.00;27.80
12704;DHT22;6416;52.182;7.650;2023-03-01T10:18:55;23.20;28.00
12704;DHT22;6416;52.182;7.650;2023-03-01T10:21:23;23.30;28.10
12704;DHT22;6416;52.182;7.650;2023-03-01T10:23:52;23.40;28.20
12704;DHT22;6416;52.182;7.650;2023-03-01T10:29:06;23.60;27.40
12704;DHT22;6416;52.182;7.650;2023-03-01T10:31:51;23.70;27.40
12704;DHT22;6416;52.182;7.650;2023-03-01T10:34:26;23.90;26.80
12704;DHT22;6416;52.182;7.650;2023-03-01T10:37:08;23.90;27.60
12704;DHT22;6416;52.182;7.650;2023-03-01T10:39:34;24.10;27.60
12704;DHT22;6416;52.182;7.650;2023-03-01T10:42:03;24.30;27.40
12704;DHT22;6416;52.182;7.650;2023-03-01T10:44:46;24.40;27.30
12704;DHT22;6416;52.182;7.650;2023-03-01T10:52:27;24.50;26.10
12704;DHT22;6416;52.182;7.650;2023-03-01T10:54:59;24.60;26.80
12704;DHT22;6416;52.182;7.650;2023-03-01T10:57:31;24.70;26.70
12704;DHT22;6416;52.182;7.650;2023-03-01T11:00:14;24.80;26.60
12704;DHT22;6416;52.182;7.650;2023-03-01T11:02:40;24.90;26.70
12704;DHT22;6416;52.182;7.650;2023-03-01T11:07:54;25.30;26.20
12704;DHT22;6416;52.182;7.650;2023-03-01T11:10:31;25.40;25.60
12704;DHT22;6416;52.182;7.650;2023-03-01T11:13:26;25.60;26.00
12704;DHT22;6416;52.182;7.650;2023-03-01T11:16:07;25.80;25.50
12704;DHT22;6416;52.182;7.650;2023-03-01T11:18:35;25.90;25.20
12704;DHT22;6416;52.182;7.650;2023-03-01T11:21:01;26.10;25.90
12704;DHT22;6416;52.182;7.650;2023-03-01T11:23:28;26.30;25.50
12704;DHT22;6416;52.182;7.650;2023-03-01T11:25:58;26.40;25.10
12704;DHT22;6416;52.182;7.650;2023-03-01T11:28:25;26.40;24.80
12704;DHT22;6416;52.182;7.650;2023-03-01T11:31:01;26.30;24.60
12704;DHT22;6416;52.182;7.650;2023-03-01T11:33:47;26.30;24.40
12704;DHT22;6416;52.182;7.650;2023-03-01T11:38:42;26.40;24.20
12704;DHT22;6416;52.182;7.650;2023-03-01T11:41:15;26.40;24.40
12704;DHT22;6416;52.182;7.650;2023-03-01T11:46:32;26.30;23.30
12704;DHT22;6416;52.182;7.650;2023-03-01T11:57:31;26.60;23.30
12704;DHT22;6416;52.182;7.650;2023-03-01T12:06:12;27.30;22.80
12704;DHT22;6416;52.182;7.650;2023-03-01T12:08:47;27.30;23.20
12704;DHT22;6416;52.182;7.650;2023-03-01T12:16:52;27.50;22.20
12704;DHT22;6416;52.182;7.650;2023-03-01T12:25:13;27.50;22.50
12704;DHT22;6416;52.182;7.650;2023-03-01T12:31:00;27.20;22.30
12704;DHT22;6416;52.182;7.650;2023-03-01T12:42:01;27.00;22.20
12704;DHT22;6416;52.182;7.650;2023-03-01T12:45:00;26.80;21.10
12704;DHT22;6416;52.182;7.650;2023-03-01T12:47:55;26.60;20.60
12704;DHT22;6416;52.182;7.650;2023-03-01T12:50:28;26.40;21.80
12704;DHT22;6416;52.182;7.650;2023-03-01T12:52:57;26.30;21.30
12704;DHT22;6416;52.182;7.650;2023-03-01T12:55:37;26.10;21.50
12704;DHT22;6416;52.182;7.650;2023-03-01T13:06:14;25.60;21.90
12704;DHT22;6416;52.182;7.650;2023-03-01T13:08:53;25.50;22.00
12704;DHT22;6416;52.182;7.650;2023-03-01T13:11:22;25.40;22.00
12704;DHT22;6416;52.182;7.650;2023-03-01T13:13:49;25.30;22.20
12704;DHT22;6416;52.182;7.650;2023-03-01T13:16:39;25.30;22.30
12704;DHT22;6416;52.182;7.650;2023-03-01T13:19:17;25.20;21.60
12704;DHT22;6416;52.182;7.650;2023-03-01T13:21:45;25.20;21.70
12704;DHT22;6416;52.182;7.650;2023-03-01T13:24:27;25.00;21.80
12704;DHT22;6416;52.182;7.650;2023-03-01T13:32:19;24.70;21.80
12704;DHT22;6416;52.182;7.650;2023-03-01T13:34:47;24.60;21.30
12704;DHT22;6416;52.182;7.650;2023-03-01T13:37:45;24.40;21.50
12704;DHT22;6416;52.182;7.650;2023-03-01T13:42:44;24.10;21.40
12704;DHT22;6416;52.182;7.650;2023-03-01T13:45:32;23.80;21.30
12704;DHT22;6416;52.182;7.650;2023-03-01T13:48:42;23.50;21.30
12704;DHT22;6416;52.182;7.650;2023-03-01T13:50:57;23.30;21.40
12704;DHT22;6416;52.182;7.650;2023-03-01T13:53:25;22.90;21.50
12704;DHT22;6416;52.182;7.650;2023-03-01T13:55:55;22.60;21.70
12704;DHT22;6416;52.182;7.650;2023-03-01T14:01:01;22.00;21.90
12704;DHT22;6416;52.182;7.650;2023-03-01T14:03:28;21.70;22.00
12704;DHT22;6416;52.182;7.650;2023-03-01T14:08:30;21.10;22.10
12704;DHT22;6416;52.182;7.650;2023-03-01T14:11:13;20.70;22.00
12704;DHT22;6416;52.182;7.650;2023-03-01T14:19:43;19.80;22.50
12704;DHT22;6416;52.182;7.650;2023-03-01T14:22:30;19.60;22.30
12704;DHT22;6416;52.182;7.650;2023-03-01T14:25:05;19.30;22.70
12704;DHT22;6416;52.182;7.650;2023-03-01T14:27:41;19.00;22.40
12704;DHT22;6416;52.182;7.650;2023-03-01T14:32:42;18.30;22.40
12704;DHT22;6416;52.182;7.650;2023-03-01T14:35:40;18.00;22.30
12704;DHT22;6416;52.182;7.650;2023-03-01T14:38:05;17.70;22.80
12704;DHT22;6416;52.182;7.650;2023-03-01T14:40:34;17.30;22.40
12704;DHT22;6416;52.182;7.650;2023-03-01T14:43:04;17.00;22.60
12704;DHT22;6416;52.182;7.650;2023-03-01T14:45:33;16.70;22.70
12704;DHT22;6416;52.182;7.650;2023-03-01T14:48:00;16.40;22.80
12704;DHT22;6416;52.182;7.650;2023-03-01T14:50:32;16.20;23.00
12704;DHT22;6416;52.182;7.650;2023-03-01T14:53:04;16.00;23.10
12704;DHT22;6416;52.182;7.650;2023-03-01T14:55:37;15.80;23.40
12704;DHT22;6416;52.182;7.650;2023-03-01T14:58:06;15.60;23.40
12704;DHT22;6416;52.182;7.650;2023-03-01T15:00:35;15.40;23.40
12704;DHT22;6416;52.182;7.650;2023-03-01T15:03:23;15.30;23.50
12704;DHT22;6416;52.182;7.650;2023-03-01T15:05:49;15.10;23.70
12704;DHT22;6416;52.182;7.650;2023-03-01T15:08:21;15.00;23.60
12704;DHT22;6416;52.182;7.650;2023-03-01T15:11:03;14.80;23.90
12704;DHT22;6416;52.182;7.650;2023-03-01T15:13:33;14.70;24.00
12704;DHT22;6416;52.182;7.650;2023-03-01T15:18:51;14.40;24.20
12704;DHT22;6416;52.182;7.650;2023-03-01T15:21:21;14.30;24.20
12704;DHT22;6416;52.182;7.650;2023-03-01T15:23:49;14.20;24.10
12704;DHT22;6416;52.182;7.650;2023-03-01T15:26:44;14.00;24.30
12704;DHT22;6416;52.182;7.650;2023-03-01T15:29:17;14.00;24.80
12704;DHT22;6416;52.182;7.650;2023-03-01T15:31:43;13.90;24.60
12704;DHT22;6416;52.182;7.650;2023-03-01T15:34:30;13.70;24.50
12704;DHT22;6416;52.182;7.650;2023-03-01T15:36:58;13.60;25.10
12704;DHT22;6416;52.182;7.650;2023-03-01T15:39:38;13.50;24.70
12704;DHT22;6416;52.182;7.650;2023-03-01T15:42:09;13.40;24.90
12704;DHT22;6416;52.182;7.650;2023-03-01T15:44:37;13.30;24.80
12704;DHT22;6416;52.182;7.650;2023-03-01T15:47:26;13.20;25.10
12704;DHT22;6416;52.182;7.650;2023-03-01T15:49:52;13.10;25.70
12704;DHT22;6416;52.182;7.650;2023-03-01T15:54:51;13.00;25.60
12704;DHT22;6416;52.182;7.650;2023-03-01T15:57:16;12.90;25.40
12704;DHT22;6416;52.182;7.650;2023-03-01T15:59:42;12.90;25.40
12704;DHT22;6416;52.182;7.650;2023-03-01T16:02:11;12.80;25.70
12704;DHT22;6416;52.182;7.650;2023-03-01T16:04:37;12.70;25.80
12704;DHT22;6416;52.182;7.650;2023-03-01T16:07:02;12.60;25.70
12704;DHT22;6416;52.182;7.650;2023-03-01T16:09:28;12.50;26.10
12704;DHT22;6416;52.182;7.650;2023-03-01T16:11:54;12.50;25.80
12704;DHT22;6416;52.182;7.650;2023-03-01T16:14:20;12.50;25.80
12704;DHT22;6416;52.182;7.650;2023-03-01T16:16:46;12.40;26.00
12704;DHT22;6416;52.182;7.650;2023-03-01T16:19:12;12.30;26.10
12704;DHT22;6416;52.182;7.650;2023-03-01T16:21:37;12.20;26.00
12704;DHT22;6416;52.182;7.650;2023-03-01T16:24:03;12.20;26.20
12704;DHT22;6416;52.182;7.650;2023-03-01T16:26:29;12.10;26.20
12704;DHT22;6416;52.182;7.650;2023-03-01T16:28:56;12.10;26.30
12704;DHT22;6416;52.182;7.650;2023-03-01T16:31:22;12.00;26.30
12704;DHT22;6416;52.182;7.650;2023-03-01T16:33:48;12.00;26.40
12704;DHT22;6416;52.182;7.650;2023-03-01T16:36:14;11.90;26.40
12704;DHT22;6416;52.182;7.650;2023-03-01T16:38:40;11.80;26.40
12704;DHT22;6416;52.182;7.650;2023-03-01T16:41:12;11.80;26.30
12704;DHT22;6416;52.182;7.650;2023-03-01T16:43:38;11.70;26.60
12704;DHT22;6416;52.182;7.650;2023-03-01T16:46:10;11.60;26.40
12704;DHT22;6416;52.182;7.650;2023-03-01T16:48:36;11.50;26.60
12704;DHT22;6416;52.182;7.650;2023-03-01T16:51:01;11.50;26.40
12704;DHT22;6416;52.182;7.650;2023-03-01T16:53:28;11.40;26.30
12704;DHT22;6416;52.182;7.650;2023-03-01T16:55:57;11.40;26.50
12704;DHT22;6416;52.182;7.650;2023-03-01T16:58:23;11.30;26.60
12704;DHT22;6416;52.182;7.650;2023-03-01T17:00:49;11.30;26.60
12704;DHT22;6416;52.182;7.650;2023-03-01T17:03:14;11.20;26.60
12704;DHT22;6416;52.182;7.650;2023-03-01T17:05:40;11.10;26.50
12704;DHT22;6416;52.182;7.650;2023-03-01T17:08:05;11.00;26.50
12704;DHT22;6416;52.182;7.650;2023-03-01T17:10:32;10.90;26.60
12704;DHT22;6416;52.182;7.650;2023-03-01T17:12:58;10.90;26.80
12704;DHT22;6416;52.182;7.650;2023-03-01T17:15:23;10.80;26.70
12704;DHT22;6416;52.182;7.650;2023-03-01T17:17:49;10.70;26.70
12704;DHT22;6416;52.182;7.650;2023-03-01T17:20:14;10.70;26.90
12704;DHT22;6416;52.182;7.650;2023-03-01T17:22:40;10.60;26.90
12704;DHT22;6416;52.182;7.650;2023-03-01T17:25:08;10.50;26.90
12704;DHT22;6416;52.182;7.650;2023-03-01T17:27:34;10.50;27.10
12704;DHT22;6416;52.182;7.650;2023-03-01T17:29:59;10.40;26.90
12704;DHT22;6416;52.182;7.650;2023-03-01T17:32:25;10.30;26.90
12704;DHT22;6416;52.182;7.650;2023-03-01T17:34:50;10.30;27.10
12704;DHT22;6416;52.182;7.650;2023-03-01T17:37:16;10.20;27.30
12704;DHT22;6416;52.182;7.650;2023-03-01T17:39:41;10.10;27.10
12704;DHT22;6416;52.182;7.650;2023-03-01T17:42:07;10.10;27.20
12704;DHT22;6416;52.182;7.650;2023-03-01T17:44:32;10.00;27.20
12704;DHT22;6416;52.182;7.650;2023-03-01T17:46:58;9.90;28.00
12704;DHT22;6416;52.182;7.650;2023-03-01T17:49:24;9.90;28.10
12704;DHT22;6416;52.182;7.650;2023-03-01T17:51:49;9.80;28.20
12704;DHT22;6416;52.182;7.650;2023-03-01T17:54:15;9.70;28.30